Time;durP1;ratioP1;P1;durP2;ratioP2;P2;SDS_P1;SDS_P2;PMS_P1;PMS_P2;Temp;Humidity;BMP_temperature;BMP_pressure;BME280_temperature;BME280_humidity;BME280_pressure;Samples;Min_cycle;Max_cycle;Signal;HPM_P1;HPM_P2
2022/06/13 00:01:55;;;;;;;3.08;1.88;;;14.60;10.70;;;;;;5086626;28;35770;-76
2022/06/13 00:04:21;;;;;;;2.95;2.05;;;14.50;10.90;;;;;;5086016;28;34484;-77
2022/06/13 00:06:48;;;;;;;3.65;1.63;;;14.50;10.90;;;;;;5086304;28;34324;-77
2022/06/13 00:09:14;;;;;;;4.38;2.03;;;14.40;10.90;;;;;;5097880;27;33827;-76
2022/06/13 00:11:40;;;;;;;1.92;1.55;;;14.30;11.10;;;;;;5107461;27;35761;-77
2022/06/13 00:14:07;;;;;;;3.63;1.80;;;14.30;11.10;;;;;;5090140;27;34498;-76
2022/06/13 00:16:33;;;;;;;3.13;2.05;;;14.20;11.20;;;;;;5106914;27;34291;-76
2022/06/13 00:18:59;;;;;;;5.80;2.20;;;14.20;11.20;;;;;;5106805;27;34484;-76
2022/06/13 00:21:32;;;;;;;2.10;1.90;;;14.10;11.30;;;;;;5106796;27;35473;-76
2022/06/13 00:24:01;;;;;;;2.45;1.77;;;14.00;12.10;;;;;;5107871;27;34232;-76
2022/06/13 00:26:29;;;;;;;3.35;1.90;;;14.00;11.60;;;;;;5107346;27;34196;-76
2022/06/13 00:28:56;;;;;;;2.15;1.95;;;13.90;11.60;;;;;;5090982;27;34056;-79
2022/06/13 00:31:23;;;;;;;3.78;1.98;;;13.90;11.70;;;;;;5125126;27;34418;-77
2022/06/13 00:33:49;;;;;;;7.80;2.58;;;13.80;11.60;;;;;;5107267;27;34258;-76
2022/06/13 00:36:16;;;;;;;3.08;1.55;;;13.80;11.90;;;;;;5126330;27;34435;-76
2022/06/13 00:38:42;;;;;;;4.22;1.75;;;13.70;12.00;;;;;;5107261;27;34368;-76
2022/06/13 00:41:12;;;;;;;1.83;1.55;;;13.60;12.00;;;;;;5119682;27;35105;-77
2022/06/13 00:43:39;;;;;;;4.53;2.03;;;13.60;12.10;;;;;;5085855;28;34256;-77
2022/06/13 00:46:24;;;;;;;2.47;1.95;;;13.60;12.20;;;;;;5087230;28;34273;-76
2022/06/13 00:48:56;;;;;;;2.10;1.50;;;13.50;14.80;;;;;;5104363;28;34174;-76
2022/06/13 00:51:22;;;;;;;1.67;1.58;;;13.50;12.60;;;;;;5086631;28;34523;-77
2022/06/13 00:53:48;;;;;;;5.22;2.00;;;13.40;12.20;;;;;;5085600;28;34112;-77
2022/06/13 00:56:18;;;;;;;2.83;2.00;;;13.30;12.20;;;;;;5104669;28;34234;-76
2022/06/13 00:58:48;;;;;;;2.75;1.88;;;13.30;12.80;;;;;;5103950;28;34067;-76
2022/06/13 01:01:15;;;;;;;3.60;1.92;;;13.20;12.80;;;;;;5068775;28;35771;-76
2022/06/13 01:03:43;;;;;;;4.80;2.17;;;13.10;12.70;;;;;;5085668;28;34271;-76
2022/06/13 01:06:09;;;;;;;2.47;1.88;;;13.10;12.70;;;;;;5104055;28;34099;-76
2022/06/13 01:08:37;;;;;;;2.83;2.10;;;13.00;12.70;;;;;;5086602;27;34025;-75
2022/06/13 01:14:12;;;;;;;2.35;1.90;;;12.90;13.20;;;;;;5108296;27;34128;-76
2022/06/13 01:17:01;;;;;;;3.05;1.70;;;12.90;15.10;;;;;;5089170;28;34138;-76
2022/06/13 01:20:07;;;;;;;3.75;2.25;;;12.90;14.60;;;;;;5089293;28;34206;-77
2022/06/13 01:23:08;;;;;;;4.13;2.03;;;12.80;16.90;;;;;;5079740;28;36977;-76
2022/06/13 01:25:54;;;;;;;4.88;2.15;;;12.80;16.50;;;;;;5094931;28;34276;-76
2022/06/13 01:28:54;;;;;;;3.85;2.15;;;12.80;14.10;;;;;;5089155;28;34206;-76
2022/06/13 01:31:50;;;;;;;4.28;2.10;;;12.70;15.70;;;;;;5089048;28;34169;-76
2022/06/13 01:34:37;;;;;;;2.25;1.67;;;12.60;15.90;;;;;;5088891;28;35705;-75
2022/06/13 01:37:27;;;;;;;6.72;2.50;;;12.60;16.20;;;;;;5088319;28;34268;-75
2022/06/13 01:40:23;;;;;;;3.08;1.90;;;12.50;16.20;;;;;;5088331;28;34466;-76
2022/06/13 01:43:11;;;;;;;2.08;1.88;;;12.40;16.50;;;;;;5104364;27;34231;-76
2022/06/13 01:45:52;;;;;;;3.22;2.10;;;12.40;16.50;;;;;;5097826;28;36325;-76
2022/06/13 01:48:53;;;;;;;3.40;2.10;;;12.30;15.60;;;;;;5106552;28;34080;-76
2022/06/13 01:51:28;;;;;;;3.92;2.10;;;12.30;16.60;;;;;;5106433;28;34140;-76
2022/06/13 01:54:16;;;;;;;3.40;2.10;;;12.20;14.40;;;;;;5089125;28;34129;-76
2022/06/13 01:56:58;;;;;;;2.95;2.30;;;12.20;15.40;;;;;;5088573;28;36376;-76
2022/06/13 01:59:52;;;;;;;4.63;2.10;;;12.20;15.70;;;;;;5107123;28;34282;-76
2022/06/13 02:02:29;;;;;;;8.95;1.98;;;12.20;17.10;;;;;;5088296;28;34588;-75
2022/06/13 02:05:05;;;;;;;4.00;2.22;;;12.10;15.30;;;;;;5106287;28;34169;-76
2022/06/13 02:07:39;;;;;;;3.35;2.17;;;12.00;15.00;;;;;;5088519;28;36783;-75
2022/06/13 02:10:11;;;;;;;2.55;2.00;;;12.00;15.10;;;;;;5088033;28;34195;-75
2022/06/13 02:12:40;;;;;;;6.30;2.53;;;12.00;15.00;;;;;;5088475;28;34349;-76
2022/06/13 02:15:15;;;;;;;2.75;2.40;;;11.90;14.70;;;;;;5072185;28;34254;-76
2022/06/13 02:17:47;;;;;;;2.95;2.22;;;11.90;15.40;;;;;;5088798;28;36308;-76
2022/06/13 02:20:20;;;;;;;4.75;2.25;;;11.90;15.20;;;;;;5055205;28;34185;-76
2022/06/13 02:22:51;;;;;;;3.97;2.35;;;11.90;15.00;;;;;;5086287;27;34180;-75
2022/06/13 02:25:22;;;;;;;3.95;2.45;;;11.80;15.00;;;;;;5110250;27;34502;-76
2022/06/13 02:28:05;;;;;;;4.68;2.40;;;11.80;15.10;;;;;;5078890;28;35591;-76
2022/06/13 02:30:34;;;;;;;2.85;2.22;;;11.80;15.60;;;;;;5071779;28;34274;-76
2022/06/13 02:33:22;;;;;;;4.95;2.17;;;11.80;15.10;;;;;;5107024;28;34284;-76
2022/06/13 02:35:56;;;;;;;1.98;1.75;;;11.70;15.60;;;;;;5097488;28;34221;-79
2022/06/13 02:38:36;;;;;;;3.53;2.00;;;11.70;15.10;;;;;;5087920;28;35619;-76
2022/06/13 02:41:08;;;;;;;2.88;2.20;;;11.60;16.20;;;;;;5107982;27;34224;-77
2022/06/13 02:43:44;;;;;;;2.47;1.95;;;11.50;15.50;;;;;;5089688;28;34375;-76
2022/06/13 02:46:16;;;;;;;3.08;2.08;;;11.50;15.40;;;;;;5088559;28;34458;-76
2022/06/13 02:48:50;;;;;;;3.58;1.90;;;11.40;15.20;;;;;;5072077;28;35530;-77
2022/06/13 02:51:36;;;;;;;4.53;2.15;;;11.40;15.40;;;;;;5089314;28;34142;-76
2022/06/13 02:54:15;;;;;;;4.65;2.30;;;11.30;16.10;;;;;;5074858;28;34105;-76
2022/06/13 03:00:24;;;;;;;3.95;2.20;;;11.30;17.10;;;;;;5101918;27;34703;-77
2022/06/13 03:03:04;;;;;;;3.00;2.00;;;11.30;18.00;;;;;;5088818;28;34225;-76
2022/06/13 03:05:46;;;;;;;4.05;2.13;;;11.20;16.20;;;;;;5089074;28;34395;-76
2022/06/13 03:08:30;;;;;;;3.60;2.10;;;11.20;17.30;;;;;;5089112;28;34134;-77
2022/06/13 03:11:27;;;;;;;4.15;2.00;;;11.20;16.80;;;;;;5107970;28;34192;-76
2022/06/13 03:14:15;;;;;;;3.38;2.20;;;11.20;17.50;;;;;;5089421;27;34134;-76
2022/06/13 03:16:51;;;;;;;3.70;2.00;;;11.10;17.00;;;;;;5108449;27;34115;-76
2022/06/13 03:19:27;;;;;;;4.07;2.08;;;11.10;16.80;;;;;;5126166;27;34335;-76
2022/06/13 03:22:13;;;;;;;3.70;2.17;;;11.10;16.60;;;;;;5125603;27;34174;-76
2022/06/13 03:24:50;;;;;;;5.25;2.10;;;11.10;16.60;;;;;;5126492;27;34203;-77
2022/06/13 03:27:33;;;;;;;6.03;2.10;;;11.00;16.90;;;;;;5108139;27;34287;-76
2022/06/13 03:30:07;;;;;;;3.35;2.30;;;11.00;16.70;;;;;;5092384;27;34342;-76
2022/06/13 03:32:40;;;;;;;2.40;2.20;;;11.00;16.40;;;;;;5091509;27;35953;-76
2022/06/13 03:35:12;;;;;;;3.38;2.08;;;10.90;16.30;;;;;;5109155;27;34156;-76
2022/06/13 03:37:48;;;;;;;3.97;2.13;;;10.90;16.60;;;;;;5108439;27;34240;-76
2022/06/13 03:40:23;;;;;;;4.28;2.35;;;10.90;17.50;;;;;;5126811;27;34159;-76
2022/06/13 03:43:02;;;;;;;5.97;1.80;;;10.80;16.80;;;;;;5087130;28;35471;-76
2022/06/13 03:45:41;;;;;;;4.10;2.05;;;10.90;17.20;;;;;;5099901;27;34174;-76
2022/06/13 03:48:16;;;;;;;3.00;2.28;;;10.80;17.60;;;;;;5092815;27;34168;-76
2022/06/13 03:50:47;;;;;;;3.33;2.10;;;10.80;17.00;;;;;;5108893;27;34194;-76
2022/06/13 03:53:20;;;;;;;4.88;2.40;;;10.80;16.50;;;;;;5108187;27;35771;-76
2022/06/13 03:55:54;;;;;;;2.85;2.00;;;10.80;16.70;;;;;;5107786;27;34144;-76
2022/06/13 03:58:32;;;;;;;4.35;2.00;;;10.80;16.50;;;;;;5125799;27;34218;-77
2022/06/13 04:01:12;;;;;;;4.95;2.25;;;10.80;17.00;;;;;;5103088;27;34286;-77
2022/06/13 04:03:39;;;;;;;2.25;1.70;;;10.80;17.40;;;;;;5090739;27;35810;-77
2022/06/13 04:06:26;;;;;;;2.72;2.20;;;10.80;16.20;;;;;;5108219;27;34117;-76
2022/06/13 04:08:52;;;;;;;2.65;2.03;;;10.80;16.50;;;;;;5067390;28;34457;-76
2022/06/13 04:11:32;;;;;;;4.07;2.15;;;10.80;16.50;;;;;;5087852;28;33750;-77
2022/06/13 04:14:15;;;;;;;3.05;2.10;;;10.80;17.30;;;;;;5103857;28;35575;-76
2022/06/13 04:17:07;;;;;;;4.32;2.42;;;10.80;17.40;;;;;;5103733;28;34250;-77
2022/06/13 04:19:54;;;;;;;6.32;2.10;;;10.80;17.60;;;;;;5088963;28;34404;-76
2022/06/13 04:22:33;;;;;;;2.47;2.20;;;10.80;18.70;;;;;;5104082;28;34101;-77
2022/06/13 04:25:07;;;;;;;1.95;1.83;;;10.80;17.10;;;;;;5104134;28;35798;-76
2022/06/13 04:27:58;;;;;;;2.50;2.00;;;10.80;16.70;;;;;;5107192;27;34098;-77
2022/06/13 04:30:28;;;;;;;2.78;2.08;;;10.80;18.00;;;;;;5106247;27;34415;-76
2022/06/13 04:33:08;;;;;;;2.50;2.00;;;10.80;16.80;;;;;;5089736;27;34171;-76
2022/06/13 04:35:36;;;;;;;4.70;2.20;;;10.80;18.10;;;;;;5125116;27;34368;-76
2022/06/13 04:38:04;;;;;;;4.97;2.13;;;10.80;16.70;;;;;;5089706;27;34424;-77
2022/06/13 04:40:34;;;;;;;3.53;2.65;;;10.80;16.80;;;;;;5106844;27;34298;-77
2022/06/13 04:43:02;;;;;;;3.95;2.13;;;10.90;17.00;;;;;;5124464;27;34479;-77
2022/06/13 04:45:33;;;;;;;4.70;2.33;;;10.90;16.90;;;;;;5092275;27;35682;-77
2022/06/13 04:48:00;;;;;;;2.28;2.05;;;10.90;17.30;;;;;;5090504;28;34161;-77
2022/06/13 04:50:35;;;;;;;4.43;2.35;;;10.90;16.90;;;;;;5056303;28;34067;-77
2022/06/13 04:53:05;;;;;;;6.88;2.35;;;11.00;17.20;;;;;;5090254;28;34193;-77
2022/06/13 04:55:45;;;;;;;2.53;2.30;;;11.00;17.00;;;;;;5072489;28;36540;-76
2022/06/13 04:58:21;;;;;;;3.85;2.30;;;11.10;17.70;;;;;;5089288;28;34134;-77
2022/06/13 05:00:52;;;;;;;3.72;2.03;;;11.20;17.90;;;;;;5092763;27;34375;-78
2022/06/13 05:03:23;;;;;;;2.90;2.28;;;11.30;17.10;;;;;;5101416;28;34061;-77
2022/06/13 05:05:55;;;;;;;3.42;2.33;;;11.30;17.30;;;;;;5072155;28;35725;-77
2022/06/13 05:08:26;;;;;;;4.25;2.15;;;11.40;17.40;;;;;;5072210;28;34272;-77
2022/06/13 05:11:00;;;;;;;4.03;2.38;;;11.40;17.20;;;;;;5089073;28;34098;-77
2022/06/13 05:13:27;;;;;;;4.68;2.60;;;11.60;17.40;;;;;;5081285;27;34325;-78
2022/06/13 05:16:06;;;;;;;2.40;2.20;;;11.70;17.00;;;;;;5109859;27;36443;-78
2022/06/13 05:18:47;;;;;;;6.63;2.67;;;11.90;17.40;;;;;;5128618;27;34673;-78
2022/06/13 05:21:39;;;;;;;2.97;2.60;;;12.30;18.30;;;;;;5099510;28;34075;-77
2022/06/13 05:24:28;;;;;;;5.95;3.08;;;13.10;18.60;;;;;;5088760;28;34268;-78
2022/06/13 05:26:54;;;;;;;3.63;2.75;;;14.10;16.90;;;;;;5103264;27;35499;-78
2022/06/13 05:29:20;;;;;;;3.92;2.53;;;15.20;12.70;;;;;;5109918;27;34402;-79
2022/06/13 05:31:46;;;;;;;2.72;2.35;;;16.20;11.40;;;;;;5117577;27;34151;-82
2022/06/13 05:34:29;;;;;;;3.53;2.35;;;17.00;9.80;;;;;;5101006;27;34170;-83
2022/06/13 05:36:55;;;;;;;3.10;2.20;;;17.90;8.80;;;;;;5135640;27;34472;-80
2022/06/13 05:39:21;;;;;;;3.92;2.63;;;18.70;7.50;;;;;;5119091;27;34215;-82
2022/06/13 05:41:47;;;;;;;3.17;2.08;;;19.50;6.70;;;;;;5103725;27;34291;-82
2022/06/13 05:44:12;;;;;;;4.20;2.03;;;20.10;5.70;;;;;;5136196;27;33705;-79
2022/06/13 05:46:39;;;;;;;5.05;1.80;;;20.70;5.00;;;;;;5091944;27;35676;-79
2022/06/13 05:49:06;;;;;;;5.40;2.13;;;21.40;4.30;;;;;;5092672;28;34315;-79
2022/06/13 05:51:32;;;;;;;3.35;1.80;;;22.00;3.50;;;;;;5123112;27;34011;-78
2022/06/13 05:53:58;;;;;;;4.35;1.92;;;22.30;2.70;;;;;;5098264;28;34485;-78
2022/06/13 05:56:25;;;;;;;4.28;1.80;;;22.60;2.20;;;;;;5092670;28;35491;-77
2022/06/13 05:58:52;;;;;;;4.53;1.65;;;22.90;1.60;;;;;;5088693;27;34220;-82
2022/06/13 06:01:18;;;;;;;3.88;2.10;;;23.10;1.40;;;;;;5134670;27;34271;-80
2022/06/13 06:03:45;;;;;;;3.88;1.65;;;23.40;1.20;;;;;;5115747;27;34113;-79
2022/06/13 06:06:21;;;;;;;5.57;1.98;;;23.70;1.00;;;;;;5114543;27;36489;-79
2022/06/13 06:08:47;;;;;;;4.95;1.83;;;24.00;1.00;;;;;;5133814;27;34279;-82
2022/06/13 06:11:13;;;;;;;6.88;1.88;;;24.30;1.00;;;;;;5133989;27;33751;-80
2022/06/13 06:13:39;;;;;;;4.57;1.75;;;24.60;1.00;;;;;;5135051;27;34448;-80
2022/06/13 06:16:05;;;;;;;4.85;1.80;;;24.80;1.00;;;;;;5116734;27;34374;-80
2022/06/13 06:18:32;;;;;;;5.05;1.65;;;25.20;1.00;;;;;;5114290;27;33744;-79
2022/06/13 06:20:59;;;;;;;1.65;1.48;;;25.60;1.00;;;;;;5103351;27;34275;-80
2022/06/13 06:23:26;;;;;;;2.58;1.80;;;26.00;1.00;;;;;;5112954;27;34151;-78
2022/06/13 06:25:52;;;;;;;4.80;2.00;;;26.00;1.00;;;;;;5112594;27;35928;-81
2022/06/13 06:28:21;;;;;;;4.60;1.70;;;25.80;1.00;;;;;;5115053;27;34109;-79
2022/06/13 06:30:47;;;;;;;3.95;1.55;;;25.90;1.00;;;;;;5114532;27;34228;-82
2022/06/13 06:33:13;;;;;;;4.57;1.67;;;25.70;1.00;;;;;;5117053;27;34176;-82
2022/06/13 06:35:40;;;;;;;4.28;1.65;;;25.70;1.00;;;;;;5113586;27;35764;-81
2022/06/13 06:38:07;;;;;;;3.30;1.40;;;25.60;1.00;;;;;;5098895;27;33819;-78
2022/06/13 06:40:33;;;;;;;6.85;1.92;;;25.60;1.00;;;;;;5132901;27;34393;-80
2022/06/13 06:42:59;;;;;;;4.93;1.85;;;25.70;1.00;;;;;;5117077;27;34128;-80
2022/06/13 06:45:26;;;;;;;3.25;1.45;;;25.90;1.00;;;;;;5114887;27;35657;-80
2022/06/13 06:47:53;;;;;;;3.40;1.73;;;25.90;1.00;;;;;;5117667;27;34270;-81
2022/06/13 06:50:22;;;;;;;3.22;1.77;;;26.10;1.00;;;;;;5136474;27;34183;-80
2022/06/13 06:52:49;;;;;;;3.22;1.60;;;26.20;1.00;;;;;;5116096;27;34159;-79
2022/06/13 07:00:42;;;;;;;3.75;1.67;;;26.20;1.00;;;;;;5132873;27;34097;-77
2022/06/13 07:03:08;;;;;;;3.00;1.60;;;26.00;1.00;;;;;;5114582;27;34868;-77
2022/06/13 07:05:35;;;;;;;4.38;1.52;;;26.10;1.00;;;;;;5097113;27;35524;-79
2022/06/13 07:08:01;;;;;;;4.95;1.75;;;26.10;1.00;;;;;;5096721;27;34181;-80
2022/06/13 07:10:27;;;;;;;4.20;1.90;;;26.10;1.00;;;;;;5118081;27;34255;-80
2022/06/13 07:12:53;;;;;;;2.58;1.55;;;26.20;1.00;;;;;;5115919;27;34287;-81
2022/06/13 07:15:19;;;;;;;3.38;1.90;;;26.30;1.00;;;;;;5098827;27;36238;-81
2022/06/13 07:17:45;;;;;;;6.22;1.85;;;26.50;1.00;;;;;;5114673;27;34105;-78
2022/06/13 07:20:12;;;;;;;3.53;2.00;;;26.60;1.00;;;;;;5133586;27;34057;-80
2022/06/13 07:22:46;;;;;;;5.70;2.17;;;26.50;1.00;;;;;;5096293;27;34303;-78
2022/06/13 07:25:17;;;;;;;2.38;1.48;;;26.60;1.00;;;;;;5129233;27;34268;-78
2022/06/13 07:27:44;;;;;;;7.45;1.83;;;26.70;1.00;;;;;;5111622;27;34656;-79
2022/06/13 07:30:12;;;;;;;3.28;1.45;;;27.00;1.00;;;;;;5106295;27;34406;-79
2022/06/13 07:32:39;;;;;;;6.20;1.75;;;27.20;1.00;;;;;;5129606;27;34248;-79
2022/06/13 07:35:07;;;;;;;5.88;1.73;;;27.40;1.00;;;;;;5102320;27;35535;-83
2022/06/13 07:40:14;;;;;;;3.33;2.03;;;27.40;1.00;;;;;;5124183;27;34235;-81
2022/06/13 07:42:46;;;;;;;6.55;1.70;;;27.50;1.00;;;;;;5110437;27;34378;-81
2022/06/13 07:45:15;;;;;;;3.22;1.45;;;27.50;1.00;;;;;;5111446;27;35323;-79
2022/06/13 07:47:42;;;;;;;6.97;1.60;;;27.50;1.00;;;;;;5128408;27;33754;-80
2022/06/13 07:50:12;;;;;;;4.68;1.73;;;27.60;1.00;;;;;;5102059;27;33789;-79
2022/06/13 07:52:37;;;;;;;4.07;1.77;;;27.50;1.00;;;;;;5092187;27;34401;-81
2022/06/13 07:55:04;;;;;;;4.03;1.80;;;27.40;1.00;;;;;;5079699;28;35696;-80
2022/06/13 07:57:30;;;;;;;5.47;1.50;;;27.50;1.00;;;;;;5099698;27;34150;-79
2022/06/13 07:59:56;;;;;;;4.78;1.70;;;27.60;1.00;;;;;;5118525;27;34397;-81
2022/06/13 08:02:27;;;;;;;7.80;2.22;;;27.50;1.00;;;;;;5104937;27;34113;-81
2022/06/13 08:04:53;;;;;;;5.68;1.85;;;27.50;1.00;;;;;;5096959;27;35798;-77
2022/06/13 08:07:19;;;;;;;4.20;1.52;;;27.40;1.00;;;;;;5110095;27;34241;-77
2022/06/13 08:09:45;;;;;;;4.88;1.40;;;27.20;1.00;;;;;;5095078;27;34018;-77
2022/06/13 08:12:14;;;;;;;1.98;1.33;;;27.00;1.00;;;;;;5111035;27;34461;-78
2022/06/13 08:14:45;;;;;;;4.63;1.67;;;27.00;1.00;;;;;;5090027;27;35841;-82
2022/06/13 08:19:57;;;;;;;2.78;1.42;;;27.10;1.00;;;;;;5103275;28;34341;-81
2022/06/13 08:22:23;;;;;;;1.67;1.27;;;26.80;1.00;;;;;;5106829;27;34237;-82
2022/06/13 08:24:49;;;;;;;5.88;1.45;;;26.80;1.00;;;;;;5111044;27;35598;-80
2022/06/13 08:27:15;;;;;;;2.45;1.55;;;26.40;1.00;;;;;;5117453;27;34114;-80
2022/06/13 08:29:42;;;;;;;3.15;1.40;;;26.10;1.00;;;;;;5126655;27;34267;-80
2022/06/13 08:32:09;;;;;;;2.30;1.50;;;25.60;1.00;;;;;;5120427;27;34516;-77
2022/06/13 08:34:35;;;;;;;3.05;1.60;;;25.40;1.00;;;;;;5098505;28;35765;-82
2022/06/13 08:37:01;;;;;;;5.22;1.63;;;25.10;1.00;;;;;;5117812;27;34332;-78
2022/06/13 08:39:27;;;;;;;3.70;1.42;;;25.30;1.00;;;;;;5090643;27;34201;-78
2022/06/13 08:42:09;;;;;;;2.40;1.40;;;25.30;1.00;;;;;;5120176;27;34312;-76
2022/06/13 08:44:57;;;;;;;3.50;1.30;;;25.50;1.00;;;;;;5128097;27;35515;-80
2022/06/13 08:47:34;;;;;;;2.40;1.50;;;26.00;1.00;;;;;;5128925;27;34181;-81
2022/06/13 08:50:20;;;;;;;6.43;1.50;;;26.40;1.00;;;;;;5125545;27;34397;-78
2022/06/13 08:52:57;;;;;;;6.68;1.60;;;26.60;1.00;;;;;;5120836;27;34379;-80
2022/06/13 08:55:35;;;;;;;2.97;1.25;;;26.70;1.00;;;;;;5114956;27;36390;-75
2022/06/13 08:58:27;;;;;;;3.40;1.50;;;26.70;1.00;;;;;;5111456;27;34126;-76
2022/06/13 09:01:05;;;;;;;5.22;1.65;;;26.60;1.00;;;;;;5112180;27;34086;-78
2022/06/13 09:03:53;;;;;;;2.63;1.40;;;26.30;1.00;;;;;;5104767;28;34327;-78
2022/06/13 09:06:37;;;;;;;6.72;1.60;;;26.00;1.00;;;;;;5116722;27;34315;-78
2022/06/13 09:09:15;;;;;;;4.78;1.60;;;25.60;1.00;;;;;;5092674;28;34316;-78
2022/06/13 09:11:48;;;;;;;2.67;1.38;;;25.20;1.00;;;;;;5111213;27;33732;-77
2022/06/13 09:14:25;;;;;;;3.17;1.38;;;24.80;1.00;;;;;;5087206;28;34217;-76
2022/06/13 09:17:12;;;;;;;3.47;1.30;;;24.50;1.00;;;;;;5097269;27;35786;-79
2022/06/13 09:19:54;;;;;;;3.05;1.67;;;24.10;1.00;;;;;;5109889;27;34334;-78
2022/06/13 09:22:27;;;;;;;4.47;1.40;;;24.10;1.00;;;;;;5114422;27;34246;-82
2022/06/13 09:25:11;;;;;;;3.95;1.60;;;24.60;1.00;;;;;;5114621;27;34128;-81
2022/06/13 09:27:45;;;;;;;4.35;1.52;;;25.20;1.00;;;;;;5104115;27;35643;-77
2022/06/13 09:30:17;;;;;;;2.92;1.25;;;25.20;1.00;;;;;;5113797;27;34225;-77
2022/06/13 09:32:51;;;;;;;3.47;1.50;;;25.30;1.00;;;;;;5127620;27;34140;-81
2022/06/13 09:35:23;;;;;;;4.00;1.30;;;25.00;1.00;;;;;;5105235;27;34319;-81
2022/06/13 09:37:57;;;;;;;2.22;1.40;;;24.80;1.00;;;;;;5110150;27;34123;-79
2022/06/13 09:40:36;;;;;;;3.55;1.52;;;24.80;1.00;;;;;;5097532;28;34489;-79
2022/06/13 09:43:25;;;;;;;5.55;1.52;;;25.10;1.00;;;;;;5081705;27;34102;-79
2022/06/13 09:46:18;;;;;;;1.85;1.40;;;25.60;1.00;;;;;;5088654;27;34407;-78
2022/06/13 09:49:11;;;;;;;3.53;1.58;;;25.80;1.00;;;;;;5116867;27;34271;-83
2022/06/13 09:52:08;;;;;;;2.15;1.48;;;26.10;1.00;;;;;;5124610;27;34812;-80
2022/06/13 09:54:55;;;;;;;4.63;1.52;;;26.30;1.00;;;;;;5110485;27;34478;-75
2022/06/13 09:57:48;;;;;;;2.85;1.35;;;26.40;1.00;;;;;;5108875;28;34386;-77
2022/06/13 10:00:26;;;;;;;3.40;1.50;;;26.20;1.00;;;;;;5102462;27;36504;-79
2022/06/13 10:03:04;;;;;;;2.90;1.55;;;26.40;1.00;;;;;;5099754;27;34084;-78
2022/06/13 10:05:36;;;;;;;3.97;1.27;;;26.50;1.00;;;;;;5106338;28;34295;-76
2022/06/13 10:08:29;;;;;;;7.57;1.67;;;26.50;1.00;;;;;;5092106;27;34459;-77
2022/06/13 10:11:23;;;;;;;3.92;1.40;;;26.60;1.00;;;;;;5099449;28;35570;-74
2022/06/13 10:14:16;;;;;;;4.72;1.50;;;26.80;1.00;;;;;;5111847;27;34256;-78
2022/06/13 10:17:12;;;;;;;3.65;1.40;;;26.90;1.00;;;;;;5088318;27;34292;-77
2022/06/13 10:20:09;;;;;;;3.63;1.45;;;27.10;1.00;;;;;;5117714;27;34271;-76
2022/06/13 10:22:59;;;;;;;4.03;1.40;;;27.50;1.00;;;;;;5107427;27;35514;-78
2022/06/13 10:25:51;;;;;;;5.70;1.60;;;27.50;1.00;;;;;;5097007;27;34165;-80
2022/06/13 10:28:45;;;;;;;5.38;1.48;;;27.30;1.00;;;;;;5109723;27;34334;-76
2022/06/13 10:31:40;;;;;;;8.45;2.08;;;26.80;1.00;;;;;;5102474;27;34331;-76
2022/06/13 10:34:26;;;;;;;2.60;1.33;;;26.30;1.00;;;;;;5088951;27;35729;-81
2022/06/13 10:37:12;;;;;;;3.58;1.48;;;25.90;1.00;;;;;;5096556;27;34216;-80
2022/06/13 10:39:38;;;;;;;3.92;1.50;;;25.60;1.00;;;;;;5112022;27;34228;-78
2022/06/13 10:42:09;;;;;;;3.53;1.27;;;25.90;1.00;;;;;;5109573;27;34194;-77
2022/06/13 10:44:38;;;;;;;4.22;1.55;;;26.30;1.00;;;;;;5093959;27;35509;-80
2022/06/13 10:47:14;;;;;;;2.10;1.05;;;26.40;1.00;;;;;;5110739;27;34203;-77
2022/06/13 10:49:49;;;;;;;2.88;1.20;;;26.60;1.00;;;;;;5091114;28;34271;-79
2022/06/13 10:52:20;;;;;;;3.38;1.20;;;26.90;1.00;;;;;;5092288;28;34114;-78
2022/06/13 10:54:50;;;;;;;5.97;1.25;;;27.10;1.00;;;;;;5128623;27;34185;-78
2022/06/13 10:57:25;;;;;;;3.88;1.33;;;27.00;1.00;;;;;;5105505;28;34188;-76
2022/06/13 11:00:11;;;;;;;1.95;1.30;;;27.00;1.00;;;;;;5105011;27;34132;-79
2022/06/13 11:02:37;;;;;;;4.45;1.30;;;27.40;1.00;;;;;;5109030;27;34088;-78
2022/06/13 11:05:06;;;;;;;4.40;1.20;;;27.80;1.00;;;;;;5097852;27;35985;-77
2022/06/13 11:07:40;;;;;;;2.10;1.38;;;28.10;1.00;;;;;;5110243;27;34175;-79
2022/06/13 11:10:17;;;;;;;3.50;1.50;;;28.30;1.00;;;;;;5090590;28;34200;-80
2022/06/13 11:12:51;;;;;;;3.97;1.40;;;28.10;1.00;;;;;;5111015;27;34058;-77
2022/06/13 11:24:11;;;;;;;4.55;1.58;;;27.60;1.00;;;;;;5111477;27;34263;-79
2022/06/13 11:29:25;;;;;;;2.78;1.38;;;28.00;1.00;;;;;;5120165;27;34370;-79
2022/06/13 11:31:54;;;;;;;5.78;1.50;;;28.00;1.00;;;;;;5121668;27;34370;-79
2022/06/13 11:34:39;;;;;;;4.45;1.50;;;28.00;1.00;;;;;;5121333;27;33730;-81
2022/06/13 11:37:23;;;;;;;6.07;1.80;;;28.10;1.00;;;;;;5083717;27;36373;-77
2022/06/13 11:39:51;;;;;;;5.78;1.45;;;28.20;1.00;;;;;;5124037;27;34101;-81
2022/06/13 11:42:24;;;;;;;1.90;1.25;;;28.10;1.00;;;;;;5085126;28;34244;-77
2022/06/13 11:45:00;;;;;;;6.82;1.70;;;28.00;1.00;;;;;;5098345;27;34270;-80
2022/06/13 11:47:38;;;;;;;4.05;1.38;;;28.10;1.00;;;;;;5108468;27;35781;-77
2022/06/13 11:50:16;;;;;;;4.28;1.55;;;28.10;1.00;;;;;;5087900;27;34252;-78
2022/06/13 11:55:28;;;;;;;4.30;1.40;;;28.50;1.00;;;;;;5125298;27;34093;-78
2022/06/13 11:58:00;;;;;;;3.83;1.52;;;28.70;1.00;;;;;;5099894;27;35832;-78
2022/06/13 12:00:35;;;;;;;2.83;1.33;;;28.70;1.00;;;;;;5087284;27;34193;-80
2022/06/13 12:03:19;;;;;;;2.88;1.67;;;28.70;1.00;;;;;;5077651;27;34206;-78
2022/06/13 12:05:50;;;;;;;2.38;1.30;;;28.70;1.00;;;;;;5108897;27;34128;-79
2022/06/13 12:08:20;;;;;;;4.15;1.50;;;28.40;1.00;;;;;;5100641;27;34587;-83
2022/06/13 12:11:06;;;;;;;2.55;1.40;;;28.30;1.00;;;;;;5109052;27;34141;-78
2022/06/13 12:13:37;;;;;;;2.28;1.40;;;28.10;1.00;;;;;;5120714;27;34101;-78
2022/06/13 12:16:20;;;;;;;2.08;1.02;;;27.90;1.00;;;;;;5091478;27;34477;-79
2022/06/13 12:19:00;;;;;;;3.47;1.60;;;27.80;1.00;;;;;;5097423;27;35977;-77
2022/06/13 12:21:57;;;;;;;5.50;1.60;;;27.80;1.00;;;;;;5071648;28;34141;-77
2022/06/13 12:24:53;;;;;;;5.30;1.40;;;28.10;1.00;;;;;;5122092;27;34149;-80
2022/06/13 12:27:34;;;;;;;2.67;1.30;;;28.20;1.00;;;;;;5102633;27;34052;-78
2022/06/13 12:30:36;;;;;;;4.22;1.70;;;28.40;1.00;;;;;;5117206;27;34424;-80
2022/06/13 12:33:27;;;;;;;4.70;1.77;;;28.40;1.00;;;;;;5083340;27;34236;-77
2022/06/13 12:36:25;;;;;;;5.55;1.60;;;28.10;1.00;;;;;;5100890;27;34307;-78
2022/06/13 12:39:22;;;;;;;4.20;1.40;;;27.80;1.00;;;;;;5082332;27;34584;-80
2022/06/13 12:42:18;;;;;;;4.30;1.70;;;27.70;1.00;;;;;;5107773;27;35944;-79
2022/06/13 12:45:17;;;;;;;3.97;1.60;;;27.80;1.00;;;;;;5078831;27;34147;-83
2022/06/13 12:48:01;;;;;;;3.55;1.60;;;27.80;1.00;;;;;;5108523;27;34129;-79
2022/06/13 12:50:48;;;;;;;5.28;1.73;;;27.70;1.00;;;;;;5098098;28;34308;-77
2022/06/13 12:53:44;;;;;;;2.60;1.77;;;27.40;1.00;;;;;;5106800;27;35885;-79
2022/06/13 12:56:29;;;;;;;3.10;1.40;;;27.30;1.00;;;;;;5101823;27;34363;-82
2022/06/13 12:59:18;;;;;;;5.47;1.58;;;27.30;1.00;;;;;;5071820;27;34429;-82
2022/06/13 13:02:15;;;;;;;3.15;1.58;;;27.30;1.00;;;;;;5104765;28;34123;-81
2022/06/13 13:05:10;;;;;;;4.32;1.63;;;27.10;1.00;;;;;;5109670;27;35936;-79
2022/06/13 13:08:04;;;;;;;3.08;1.83;;;26.80;1.00;;;;;;5111309;27;34275;-78
2022/06/13 13:10:53;;;;;;;4.30;1.55;;;26.50;1.00;;;;;;5114164;27;34216;-77
2022/06/13 13:13:34;;;;;;;2.88;1.65;;;26.20;1.00;;;;;;5101192;27;34611;-77
2022/06/13 13:16:13;;;;;;;3.88;1.42;;;26.00;1.00;;;;;;5114188;27;34364;-77
2022/06/13 13:18:59;;;;;;;5.43;1.95;;;25.80;1.00;;;;;;5091500;27;34124;-80
2022/06/13 13:21:43;;;;;;;4.50;1.50;;;25.60;1.00;;;;;;5125728;27;33839;-81
2022/06/13 13:24:35;;;;;;;6.00;1.70;;;25.60;1.00;;;;;;5128931;27;34522;-79
2022/06/13 13:27:07;;;;;;;3.15;1.30;;;25.90;1.00;;;;;;5108667;27;36058;-77
2022/06/13 13:29:48;;;;;;;5.10;1.60;;;26.20;1.00;;;;;;5110625;27;34121;-79
2022/06/13 13:32:36;;;;;;;2.45;1.48;;;26.50;1.00;;;;;;5099010;28;34011;-77
2022/06/13 13:35:30;;;;;;;2.75;1.60;;;26.90;1.00;;;;;;5093514;28;34577;-80
2022/06/13 13:38:21;;;;;;;3.65;1.80;;;27.10;1.00;;;;;;5093635;27;34217;-77
2022/06/13 13:40:58;;;;;;;4.43;1.42;;;27.10;1.00;;;;;;5099594;28;34197;-77
2022/06/13 13:43:44;;;;;;;5.13;1.75;;;27.00;1.00;;;;;;5092853;27;34197;-79
2022/06/13 13:46:41;;;;;;;4.97;2.08;;;26.70;1.00;;;;;;5094137;27;34146;-78
2022/06/13 13:49:26;;;;;;;3.00;1.70;;;26.50;1.00;;;;;;5113398;27;35727;-77
2022/06/13 13:52:13;;;;;;;6.75;2.10;;;26.40;1.00;;;;;;5107465;27;34443;-78
2022/06/13 13:54:47;;;;;;;4.05;1.88;;;26.40;1.00;;;;;;5100863;27;34196;-80
2022/06/13 13:57:42;;;;;;;2.75;1.65;;;26.20;1.00;;;;;;5134930;27;34266;-79
2022/06/13 14:00:31;;;;;;;4.25;1.60;;;25.80;1.00;;;;;;5128696;27;35058;-80
2022/06/13 14:03:25;;;;;;;6.93;1.92;;;25.90;1.00;;;;;;5113562;27;34195;-78
2022/06/13 14:05:59;;;;;;;2.90;1.63;;;26.20;1.00;;;;;;5111508;27;34168;-76
2022/06/13 14:08:29;;;;;;;4.25;1.88;;;26.40;1.00;;;;;;5078644;28;34063;-81
2022/06/13 14:10:58;;;;;;;5.40;1.80;;;26.30;1.00;;;;;;5105549;27;36862;-80
2022/06/13 14:13:31;;;;;;;5.10;1.88;;;26.30;1.00;;;;;;5110775;27;34407;-81